Time;durP1;ratioP1;P1;durP2;ratioP2;P2;SDS_P1;SDS_P2;PMS_P1;PMS_P2;Temp;Humidity;BMP_temperature;BMP_pressure;BME280_temperature;BME280_humidity;BME280_pressure;Samples;Min_cycle;Max_cycle;Signal;HPM_P1;HPM_P2
2021/07/02 00:00:29;;;;;;;1.25;1.25;;;;;;;16.99;64.35;98561.13;5049742;28;20031;-67
2021/07/02 00:02:54;;;;;;;1.40;1.40;;;;;;;16.93;64.74;98558.81;5051380;28;20131;-67
2021/07/02 00:05:20;;;;;;;1.42;1.33;;;;;;;16.89;64.37;98565.88;5050919;28;20083;-67
2021/07/02 00:07:45;;;;;;;2.40;1.80;;;;;;;16.89;64.42;98557.28;5051285;28;20032;-66
2021/07/02 00:10:11;;;;;;;1.60;1.50;;;;;;;16.92;64.47;98558.91;5048267;28;20075;-66
2021/07/02 00:12:37;;;;;;;4.82;2.22;;;;;;;16.87;64.68;98554.78;5050749;28;20540;-66
2021/07/02 00:15:03;;;;;;;2.92;2.72;;;;;;;16.92;64.49;98570.13;5050810;28;20460;-67
2021/07/02 00:17:29;;;;;;;1.45;1.35;;;;;;;16.89;64.52;98559.88;5050615;28;20090;-66
2021/07/02 00:19:54;;;;;;;2.25;1.80;;;;;;;16.84;64.72;98561.84;5049428;28;20386;-66
2021/07/02 00:22:19;;;;;;;2.15;2.05;;;;;;;16.84;64.77;98554.94;5049600;28;20057;-66
2021/07/02 00:24:45;;;;;;;1.73;1.63;;;;;;;16.86;65.10;98558.28;5050062;28;20059;-66
2021/07/02 00:27:10;;;;;;;1.70;1.60;;;;;;;16.78;65.17;98550.00;5049271;28;20025;-66
2021/07/02 00:29:37;;;;;;;1.60;1.50;;;;;;;16.80;65.01;98555.13;5050153;28;20111;-66
2021/07/02 00:32:03;;;;;;;1.90;1.80;;;;;;;16.79;65.80;98543.09;5048988;28;20389;-66
2021/07/02 00:34:28;;;;;;;2.13;1.63;;;;;;;16.85;66.23;98551.41;5050374;28;20031;-66
2021/07/02 00:36:53;;;;;;;2.13;2.00;;;;;;;16.72;66.79;98549.47;5050574;28;20291;-67
2021/07/02 00:39:19;;;;;;;2.28;1.55;;;;;;;16.54;66.84;98545.06;5050824;28;20140;-67
2021/07/02 00:41:44;;;;;;;2.25;2.08;;;;;;;16.62;66.38;98548.19;5047292;28;20033;-67
2021/07/02 00:44:10;;;;;;;1.70;1.60;;;;;;;16.66;66.60;98552.31;5049019;28;20067;-67
2021/07/02 00:46:35;;;;;;;1.45;1.35;;;;;;;16.58;66.68;98552.66;5047486;28;20029;-66
2021/07/02 00:49:01;;;;;;;2.47;2.05;;;;;;;16.55;66.90;98551.94;5050488;28;20025;-66
2021/07/02 00:51:30;;;;;;;1.75;1.65;;;;;;;16.46;67.99;98538.47;5049427;28;20400;-67
2021/07/02 00:53:57;;;;;;;1.90;1.80;;;;;;;16.48;67.69;98537.56;5051366;28;20024;-66
2021/07/02 00:56:23;;;;;;;2.00;1.90;;;;;;;16.44;67.87;98529.09;5047821;28;20033;-67
2021/07/02 00:58:48;;;;;;;1.85;1.75;;;;;;;16.33;67.73;98526.16;5050341;28;20025;-67
2021/07/02 01:01:16;;;;;;;2.28;2.10;;;;;;;16.34;68.12;98517.47;5049521;28;20267;-66
2021/07/02 01:03:46;;;;;;;3.85;3.00;;;;;;;16.47;67.20;98505.66;5050330;28;20025;-66
2021/07/02 01:06:12;;;;;;;1.73;1.63;;;;;;;16.46;66.27;98494.47;5025640;28;20029;-66
2021/07/02 01:08:40;;;;;;;2.08;1.98;;;;;;;16.38;67.35;98496.56;5048496;28;20047;-66
2021/07/02 01:11:05;;;;;;;1.83;1.73;;;;;;;16.34;67.00;98495.00;5048190;28;20115;-67
2021/07/02 01:13:30;;;;;;;1.98;1.88;;;;;;;16.27;67.16;98498.78;5050782;28;20033;-67
2021/07/02 01:15:56;;;;;;;2.10;2.00;;;;;;;16.23;66.86;98509.34;5048434;28;20013;-67
2021/07/02 01:18:22;;;;;;;1.92;1.83;;;;;;;16.18;67.03;98494.00;5050448;28;20038;-67
2021/07/02 01:20:50;;;;;;;1.85;1.75;;;;;;;16.12;67.57;98512.41;5048087;28;20405;-67
2021/07/02 01:23:16;;;;;;;2.45;1.80;;;;;;;16.05;67.71;98510.97;5044987;28;20126;-68
2021/07/02 01:25:42;;;;;;;2.30;2.10;;;;;;;16.06;67.35;98509.22;5047712;28;20369;-67
2021/07/02 01:28:08;;;;;;;2.47;2.22;;;;;;;16.00;66.90;98518.91;5049225;28;20037;-67
2021/07/02 01:30:34;;;;;;;2.92;2.13;;;;;;;15.99;66.79;98519.84;5049076;28;20041;-67
2021/07/02 01:32:59;;;;;;;2.40;1.92;;;;;;;15.92;67.68;98515.81;5050963;28;20033;-66
2021/07/02 01:35:24;;;;;;;1.95;1.60;;;;;;;15.87;67.58;98511.78;5049459;28;20116;-66
2021/07/02 01:37:50;;;;;;;2.05;1.85;;;;;;;15.81;68.16;98517.19;5049095;28;20033;-66
2021/07/02 01:40:15;;;;;;;2.10;2.00;;;;;;;15.82;67.96;98514.56;5050916;28;20036;-66
2021/07/02 01:42:41;;;;;;;2.22;2.00;;;;;;;15.78;68.17;98520.75;5050594;28;20048;-66
2021/07/02 01:45:07;;;;;;;1.95;1.85;;;;;;;15.80;68.27;98518.09;5050910;28;20150;-66
2021/07/02 01:47:32;;;;;;;2.40;2.20;;;;;;;15.82;67.79;98517.13;5049199;28;20029;-66
2021/07/02 01:49:58;;;;;;;2.42;2.22;;;;;;;15.82;67.55;98518.88;5049829;28;20088;-66
2021/07/02 01:52:23;;;;;;;2.60;2.40;;;;;;;15.81;67.93;98523.19;5048885;28;20441;-66
2021/07/02 01:54:49;;;;;;;2.50;2.30;;;;;;;15.80;68.02;98521.50;5053271;28;20028;-66
2021/07/02 01:57:26;;;;;;;2.15;2.05;;;;;;;15.79;68.12;98521.56;5035977;28;20026;-66
2021/07/02 01:59:52;;;;;;;3.40;2.05;;;;;;;15.82;68.00;98524.03;5052810;28;20041;-66
2021/07/02 02:02:18;;;;;;;2.50;2.30;;;;;;;15.81;67.47;98530.13;5050615;28;20044;-66
2021/07/02 02:04:44;;;;;;;2.58;2.35;;;;;;;15.80;67.47;98531.00;5052495;28;20028;-66
2021/07/02 02:07:10;;;;;;;2.50;2.30;;;;;;;15.79;68.12;98524.16;5051647;28;20052;-66
2021/07/02 02:09:35;;;;;;;2.60;2.40;;;;;;;15.81;67.12;98525.78;5054516;28;20394;-66
2021/07/02 02:12:01;;;;;;;4.72;3.47;;;;;;;15.89;66.62;98512.53;5052871;28;20057;-66
2021/07/02 02:14:27;;;;;;;2.58;2.38;;;;;;;15.92;67.32;98520.16;5051025;28;20334;-66
2021/07/02 02:16:54;;;;;;;2.83;2.60;;;;;;;15.89;67.74;98522.88;5052786;28;20028;-66
2021/07/02 02:19:20;;;;;;;2.40;2.17;;;;;;;15.77;67.96;98513.06;5052249;28;20052;-66
2021/07/02 02:21:45;;;;;;;2.63;2.42;;;;;;;15.69;67.90;98518.53;5050875;28;20033;-66
2021/07/02 02:24:11;;;;;;;2.47;2.28;;;;;;;15.70;67.74;98520.19;5052399;28;20033;-66
2021/07/02 02:26:36;;;;;;;2.90;2.65;;;;;;;15.65;67.87;98511.81;5051273;28;20438;-66
2021/07/02 02:29:02;;;;;;;2.85;2.65;;;;;;;15.63;68.16;98510.19;5052092;28;20376;-66
2021/07/02 02:31:28;;;;;;;2.78;2.58;;;;;;;15.66;67.87;98512.66;5053338;28;20052;-66
2021/07/02 02:33:53;;;;;;;2.53;2.33;;;;;;;15.69;67.71;98520.28;5050592;28;20035;-66
2021/07/02 02:36:19;;;;;;;2.60;2.40;;;;;;;15.60;68.32;98513.75;5052112;28;20550;-66
2021/07/02 02:38:44;;;;;;;2.67;2.47;;;;;;;15.60;68.25;98507.75;5052488;28;20112;-66
2021/07/02 02:41:10;;;;;;;3.30;2.63;;;;;;;15.58;68.54;98507.78;5051627;28;20071;-66
2021/07/02 02:43:36;;;;;;;3.47;3.28;;;;;;;15.47;68.96;98508.22;5051021;28;20035;-66
2021/07/02 02:46:02;;;;;;;4.28;3.22;;;;;;;15.42;68.67;98511.88;5052831;28;20302;-66
2021/07/02 02:48:28;;;;;;;4.32;3.40;;;;;;;15.41;68.62;98500.69;5051046;28;20078;-67
2021/07/02 02:50:53;;;;;;;3.35;3.08;;;;;;;15.52;68.16;98495.97;5050997;28;20029;-66
2021/07/02 02:53:19;;;;;;;3.53;3.22;;;;;;;15.64;67.69;98504.13;5049725;28;20056;-65
2021/07/02 02:55:44;;;;;;;3.70;3.40;;;;;;;15.61;67.53;98504.25;5050826;28;20101;-66
2021/07/02 02:58:10;;;;;;;3.50;3.20;;;;;;;15.70;67.39;98498.72;5050740;28;20087;-66
2021/07/02 03:00:35;;;;;;;3.38;2.90;;;;;;;15.75;67.00;98501.91;5052592;28;20079;-67
2021/07/02 03:03:01;;;;;;;4.07;2.90;;;;;;;15.78;66.77;98506.97;5052357;28;20079;-66
2021/07/02 03:05:26;;;;;;;3.10;2.80;;;;;;;15.84;66.43;98507.56;5052585;28;20029;-67
2021/07/02 03:07:54;;;;;;;4.00;2.92;;;;;;;15.91;67.17;98508.97;5051350;28;20064;-66
2021/07/02 03:10:20;;;;;;;3.97;2.70;;;;;;;15.85;67.29;98511.81;5052457;28;20036;-66
2021/07/02 03:12:45;;;;;;;3.53;3.22;;;;;;;15.91;66.83;98518.50;5049915;28;20057;-66
2021/07/02 03:15:11;;;;;;;6.25;3.53;;;;;;;15.87;67.30;98516.94;5036583;28;20047;-67
2021/07/02 03:17:37;;;;;;;3.25;2.95;;;;;;;15.79;67.43;98519.81;5050792;28;20051;-67
2021/07/02 03:20:05;;;;;;;2.47;2.25;;;;;;;15.89;67.01;98515.97;5046990;28;20029;-67
2021/07/02 03:22:31;;;;;;;3.72;3.40;;;;;;;15.83;67.42;98521.38;5050725;28;20124;-67
2021/07/02 03:24:56;;;;;;;3.28;2.97;;;;;;;15.87;66.90;98528.09;5048077;28;20116;-67
2021/07/02 03:27:22;;;;;;;4.05;3.60;;;;;;;15.86;67.26;98530.78;5052646;28;20079;-67
2021/07/02 03:29:47;;;;;;;4.70;3.53;;;;;;;15.81;67.10;98518.03;5051466;28;20033;-67
2021/07/02 03:32:13;;;;;;;2.90;2.65;;;;;;;15.89;66.74;98526.31;5051537;28;20028;-67
2021/07/02 03:34:41;;;;;;;3.65;3.28;;;;;;;15.91;67.16;98518.50;5049344;28;20025;-67
2021/07/02 03:37:06;;;;;;;2.85;2.65;;;;;;;15.93;66.68;98511.50;5052269;28;20039;-67
2021/07/02 03:39:31;;;;;;;3.00;2.80;;;;;;;15.96;66.91;98509.63;5049514;28;20112;-67
2021/07/02 03:41:57;;;;;;;5.85;2.90;;;;;;;16.06;66.93;98506.66;5051933;28;20388;-66
2021/07/02 03:44:22;;;;;;;2.80;2.60;;;;;;;16.04;66.42;98511.88;5050194;28;20025;-66
2021/07/02 03:46:48;;;;;;;2.97;2.60;;;;;;;16.06;66.53;98511.81;5051011;28;20021;-66
2021/07/02 03:49:13;;;;;;;4.07;3.35;;;;;;;16.17;66.03;98519.94;5050809;28;20037;-66
2021/07/02 03:51:38;;;;;;;3.50;2.47;;;;;;;16.27;65.95;98523.81;5050381;28;20278;-66
2021/07/02 03:54:04;;;;;;;3.13;2.83;;;;;;;16.40;65.11;98515.47;5050130;28;20024;-66
2021/07/02 03:56:29;;;;;;;3.83;3.03;;;;;;;16.42;65.61;98503.28;5050857;28;20067;-66
2021/07/02 03:58:55;;;;;;;2.90;2.70;;;;;;;16.62;64.73;98511.94;5048452;28;20389;-66
2021/07/02 04:01:20;;;;;;;3.00;2.78;;;;;;;16.90;63.77;98502.00;5049137;28;20051;-66
2021/07/02 04:03:45;;;;;;;2.85;2.65;;;;;;;17.02;63.40;98511.78;5050794;28;20358;-66
2021/07/02 04:06:11;;;;;;;3.28;2.97;;;;;;;17.00;63.06;98512.78;5049972;28;20036;-66
2021/07/02 04:08:36;;;;;;;3.42;3.13;;;;;;;17.24;61.80;98514.19;5050186;28;20674;-66
2021/07/02 04:11:03;;;;;;;3.25;3.05;;;;;;;17.35;61.23;98515.34;5049276;28;20028;-66
2021/07/02 04:13:29;;;;;;;3.72;3.42;;;;;;;17.40;61.33;98517.72;5051731;28;20025;-67
2021/07/02 04:15:54;;;;;;;3.30;3.00;;;;;;;17.40;61.31;98524.69;5050529;28;20029;-67
2021/07/02 04:18:20;;;;;;;3.13;2.88;;;;;;;17.40;60.77;98516.91;5048717;28;20123;-67
2021/07/02 04:20:46;;;;;;;7.65;3.97;;;;;;;17.17;61.23;98523.19;5050970;28;20040;-67
2021/07/02 04:23:11;;;;;;;3.20;2.90;;;;;;;17.26;61.23;98525.34;5050751;28;20156;-67
2021/07/02 04:25:37;;;;;;;4.15;2.95;;;;;;;17.28;61.11;98520.91;5048443;28;20103;-67
2021/07/02 04:28:02;;;;;;;4.47;2.95;;;;;;;17.28;61.01;98524.34;5050899;28;20037;-66
2021/07/02 04:30:28;;;;;;;3.00;2.80;;;;;;;17.30;60.87;98521.69;5048174;28;20039;-67
2021/07/02 04:32:53;;;;;;;2.88;2.67;;;;;;;17.44;60.28;98526.22;5049874;28;20072;-67
2021/07/02 04:35:19;;;;;;;3.20;2.78;;;;;;;17.54;59.96;98522.25;5050939;28;20040;-67
2021/07/02 04:37:44;;;;;;;3.05;2.85;;;;;;;17.73;59.37;98525.66;5049382;28;20060;-67
2021/07/02 04:40:11;;;;;;;4.43;2.90;;;;;;;17.97;57.61;98528.78;5050650;28;20044;-67
2021/07/02 04:42:37;;;;;;;3.22;3.00;;;;;;;18.05;57.74;98531.81;5047966;28;20036;-67
2021/07/02 04:45:04;;;;;;;3.92;3.63;;;;;;;18.09;57.54;98533.34;5047881;28;20048;-67
2021/07/02 04:47:29;;;;;;;3.10;2.90;;;;;;;18.14;57.66;98532.19;5050607;28;20036;-67
2021/07/02 04:49:55;;;;;;;5.10;4.60;;;;;;;18.24;57.35;98540.38;5051178;28;20036;-63
2021/07/02 04:52:20;;;;;;;4.03;3.20;;;;;;;18.20;57.37;98544.84;5048710;28;20045;-63
2021/07/02 04:54:47;;;;;;;3.78;3.42;;;;;;;18.30;56.92;98542.63;5049530;28;20470;-63
2021/07/02 04:57:12;;;;;;;3.38;3.08;;;;;;;18.24;56.54;98543.81;5048827;28;20318;-63
2021/07/02 04:59:39;;;;;;;4.47;3.22;;;;;;;18.12;56.93;98548.78;5050836;28;20052;-63
2021/07/02 05:02:06;;;;;;;6.57;2.55;;;;;;;18.14;56.79;98545.19;5050821;28;20041;-63
2021/07/02 05:04:32;;;;;;;3.83;3.03;;;;;;;18.12;57.21;98548.78;5049369;28;20385;-63
2021/07/02 05:06:57;;;;;;;3.17;2.97;;;;;;;17.97;57.75;98549.53;5047604;28;20044;-63
2021/07/02 05:09:23;;;;;;;3.70;3.40;;;;;;;17.87;58.27;98535.31;5050218;28;20112;-63
2021/07/02 05:11:49;;;;;;;3.55;3.25;;;;;;;17.90;57.87;98553.34;5048090;28;20048;-63
2021/07/02 05:14:14;;;;;;;3.65;3.30;;;;;;;17.75;58.53;98544.56;5049154;28;20036;-63
2021/07/02 05:16:40;;;;;;;3.25;2.97;;;;;;;17.91;57.91;98542.06;5049804;28;20041;-63
2021/07/02 05:19:06;;;;;;;5.22;3.22;;;;;;;17.96;57.88;98545.25;5051244;28;20041;-63
2021/07/02 05:21:31;;;;;;;3.08;2.78;;;;;;;18.01;57.43;98546.72;5047120;28;20033;-63
2021/07/02 05:23:57;;;;;;;4.00;2.83;;;;;;;17.98;58.01;98546.88;5048439;28;20043;-62
2021/07/02 05:26:22;;;;;;;3.08;2.78;;;;;;;17.96;58.13;98537.47;5048935;28;20033;-63
2021/07/02 05:28:48;;;;;;;3.80;3.50;;;;;;;17.98;57.64;98540.84;5053181;28;20037;-63
2021/07/02 05:31:15;;;;;;;3.00;2.80;;;;;;;17.80;58.48;98546.03;5053426;28;20390;-63
2021/07/02 05:33:40;;;;;;;3.67;2.72;;;;;;;17.85;58.22;98539.78;5054067;28;20032;-63
2021/07/02 05:36:06;;;;;;;3.50;3.20;;;;;;;17.85;57.98;98556.19;5050554;28;20040;-63
2021/07/02 05:38:32;;;;;;;3.10;2.90;;;;;;;17.75;58.45;98544.56;5054353;28;20040;-63
2021/07/02 05:40:57;;;;;;;5.03;3.40;;;;;;;17.85;58.00;98553.59;5052679;28;20275;-63
2021/07/02 05:43:23;;;;;;;2.67;2.47;;;;;;;17.73;57.75;98552.44;5053457;28;20063;-62
2021/07/02 05:45:49;;;;;;;3.42;3.13;;;;;;;17.73;58.58;98551.59;5053454;28;20039;-62
2021/07/02 05:48:19;;;;;;;2.90;2.70;;;;;;;17.87;57.77;98548.28;5052422;28;20046;-62
2021/07/02 05:50:48;;;;;;;2.65;2.45;;;;;;;17.85;58.33;98555.34;5052242;28;20108;-62
2021/07/02 05:53:15;;;;;;;4.03;3.33;;;;;;;17.62;58.83;98564.22;5051456;28;20052;-63
2021/07/02 05:55:41;;;;;;;3.05;2.80;;;;;;;17.68;58.57;98558.75;5053845;28;20075;-63
2021/07/02 05:58:07;;;;;;;3.97;3.15;;;;;;;17.68;58.86;98559.59;5053359;28;20084;-63
2021/07/02 06:00:33;;;;;;;3.05;2.85;;;;;;;17.74;58.80;98572.25;5052486;28;20029;-63
2021/07/02 06:02:58;;;;;;;3.95;2.92;;;;;;;17.49;59.67;98574.31;5052761;28;20072;-63
2021/07/02 06:05:24;;;;;;;3.38;3.10;;;;;;;17.56;59.18;98564.50;5053583;28;20390;-62
2021/07/02 06:07:54;;;;;;;3.50;3.30;;;;;;;17.59;59.52;98574.75;5051201;28;20041;-62
2021/07/02 06:10:22;;;;;;;3.33;3.03;;;;;;;17.78;59.31;98576.38;5051850;28;20033;-62
2021/07/02 06:12:48;;;;;;;2.65;2.45;;;;;;;17.53;59.20;98578.44;5051081;28;20059;-63
2021/07/02 06:15:15;;;;;;;3.00;2.80;;;;;;;17.49;59.49;98583.84;5051511;28;20278;-62
2021/07/02 06:17:43;;;;;;;4.68;3.47;;;;;;;17.66;58.85;98589.94;5052206;28;20055;-62
2021/07/02 06:20:10;;;;;;;3.60;2.78;;;;;;;17.75;59.27;98583.47;5050821;28;20032;-62
2021/07/02 06:22:36;;;;;;;3.25;2.95;;;;;;;17.84;58.41;98596.00;5050322;28;20043;-62
2021/07/02 06:25:03;;;;;;;3.08;2.88;;;;;;;17.93;58.29;98589.50;5052142;28;20036;-62
2021/07/02 06:27:29;;;;;;;2.92;2.63;;;;;;;17.87;58.22;98585.44;5051413;28;20271;-63
2021/07/02 06:29:54;;;;;;;5.25;3.22;;;;;;;17.58;59.08;98599.00;5038414;28;20051;-63
2021/07/02 06:32:20;;;;;;;3.30;3.00;;;;;;;17.61;59.28;98598.88;5050948;28;20059;-61
2021/07/02 06:34:45;;;;;;;3.08;2.85;;;;;;;17.61;59.12;98599.69;5052945;28;20817;-63
2021/07/02 06:37:11;;;;;;;5.20;3.63;;;;;;;17.55;59.52;98604.31;5051454;28;20115;-62
2021/07/02 06:39:36;;;;;;;3.53;3.10;;;;;;;17.39;60.33;98598.16;5052008;28;20471;-63
2021/07/02 06:42:02;;;;;;;3.05;2.75;;;;;;;17.28;60.74;98617.63;5052306;28;20037;-62
2021/07/02 06:44:27;;;;;;;2.63;2.42;;;;;;;17.45;60.03;98608.22;5052422;28;20134;-62
2021/07/02 06:46:53;;;;;;;2.85;2.65;;;;;;;17.60;59.78;98607.56;5052661;28;20036;-62
2021/07/02 06:49:18;;;;;;;2.67;2.40;;;;;;;17.64;59.17;98609.09;5052705;28;20144;-62
2021/07/02 06:51:43;;;;;;;3.05;2.20;;;;;;;17.75;59.48;98622.38;5051637;28;20040;-62
2021/07/02 06:54:09;;;;;;;2.63;2.42;;;;;;;17.73;59.51;98616.44;5051738;28;20408;-62
2021/07/02 06:56:34;;;;;;;3.22;2.83;;;;;;;17.65;59.63;98623.75;5052453;28;20388;-62
2021/07/02 06:58:59;;;;;;;2.58;2.38;;;;;;;17.71;59.26;98629.47;5050571;28;20040;-62
2021/07/02 07:01:25;;;;;;;3.13;2.92;;;;;;;17.67;59.22;98629.66;5049071;28;20457;-62
2021/07/02 07:03:51;;;;;;;5.82;3.00;;;;;;;17.68;58.87;98628.78;5050197;28;20033;-62
2021/07/02 07:06:17;;;;;;;3.45;2.90;;;;;;;17.87;58.11;98637.34;5052762;28;20029;-62
2021/07/02 07:08:42;;;;;;;3.08;2.70;;;;;;;17.96;57.83;98613.53;5050541;28;20025;-62
2021/07/02 07:11:08;;;;;;;3.25;2.92;;;;;;;17.93;57.77;98631.03;5049565;28;20421;-62
2021/07/02 07:13:33;;;;;;;3.30;3.00;;;;;;;18.03;57.93;98627.06;5050722;28;20032;-63
2021/07/02 07:15:59;;;;;;;3.28;2.97;;;;;;;18.05;58.32;98638.19;5052011;28;20148;-62
2021/07/02 07:18:24;;;;;;;2.90;2.70;;;;;;;18.03;58.04;98635.69;5049821;28;20059;-62
2021/07/02 07:20:50;;;;;;;4.07;3.10;;;;;;;18.13;57.35;98631.72;5053137;28;20024;-62
2021/07/02 07:23:15;;;;;;;3.45;2.88;;;;;;;18.29;58.11;98636.97;5050926;28;20037;-62
2021/07/02 07:25:41;;;;;;;3.35;3.05;;;;;;;18.01;58.10;98632.31;5051399;28;20100;-62
2021/07/02 07:28:07;;;;;;;2.97;2.78;;;;;;;18.07;58.82;98632.03;5051820;28;20033;-62
2021/07/02 07:30:32;;;;;;;4.75;3.33;;;;;;;18.19;58.74;98630.59;5035890;28;20074;-62
2021/07/02 07:32:58;;;;;;;3.67;3.28;;;;;;;18.24;57.99;98636.38;5051389;28;20039;-63
2021/07/02 07:35:28;;;;;;;4.00;2.45;;;;;;;18.30;57.96;98636.06;5033581;28;20033;-63
2021/07/02 07:37:57;;;;;;;3.28;2.97;;;;;;;18.28;58.96;98627.53;5049830;28;20044;-63
2021/07/02 07:40:28;;;;;;;3.22;3.03;;;;;;;18.40;58.11;98628.66;5050585;28;20271;-63
2021/07/02 07:42:54;;;;;;;4.28;4.00;;;;;;;18.39;58.26;98629.56;5049766;28;20033;-63
2021/07/02 07:45:20;;;;;;;3.97;3.03;;;;;;;18.55;57.63;98625.31;5050316;28;20345;-63
2021/07/02 07:47:46;;;;;;;3.25;2.95;;;;;;;18.85;56.63;98635.88;5052181;28;20314;-62
2021/07/02 07:50:19;;;;;;;3.42;3.10;;;;;;;19.06;56.37;98637.34;5049486;28;20035;-63
2021/07/02 07:53:00;;;;;;;3.28;3.05;;;;;;;18.85;56.36;98634.13;5050740;28;20064;-62
2021/07/02 07:55:28;;;;;;;3.45;3.15;;;;;;;19.06;56.01;98637.34;5048777;28;20039;-63
2021/07/02 07:57:53;;;;;;;5.45;3.35;;;;;;;18.96;55.95;98639.59;5051329;28;20052;-62
2021/07/02 08:00:20;;;;;;;4.10;3.47;;;;;;;18.89;54.44;98633.03;5051556;28;20037;-62
2021/07/02 08:02:45;;;;;;;3.33;3.03;;;;;;;18.68;55.52;98634.16;5048517;28;20028;-62
2021/07/02 08:05:12;;;;;;;4.00;3.60;;;;;;;18.63;55.68;98641.34;5049564;28;20411;-62
2021/07/02 08:07:39;;;;;;;3.58;3.30;;;;;;;18.52;56.29;98649.69;5050659;28;20102;-62
2021/07/02 08:10:06;;;;;;;3.50;3.20;;;;;;;18.35;57.01;98643.63;5048202;28;20201;-62
2021/07/02 08:12:32;;;;;;;3.42;3.05;;;;;;;18.46;56.52;98644.75;5048822;28;20053;-62
2021/07/02 08:14:58;;;;;;;3.30;3.00;;;;;;;18.14;57.00;98641.19;5051265;28;20051;-62
2021/07/02 08:17:28;;;;;;;3.70;3.40;;;;;;;18.29;56.02;98646.53;5049132;28;20082;-62
2021/07/02 08:19:53;;;;;;;2.53;2.33;;;;;;;18.30;56.57;98648.19;5049269;28;20047;-62
2021/07/02 08:22:19;;;;;;;3.22;3.03;;;;;;;18.47;56.51;98653.38;5050399;28;20290;-62
2021/07/02 08:24:44;;;;;;;4.00;3.50;;;;;;;18.46;56.38;98644.75;5050019;28;20039;-62
2021/07/02 08:27:10;;;;;;;3.22;2.95;;;;;;;18.69;56.23;98654.00;5048846;28;20028;-63
2021/07/02 08:29:35;;;;;;;4.13;3.22;;;;;;;18.95;55.33;98652.66;5048878;28;20390;-63
2021/07/02 08:32:00;;;;;;;3.45;3.15;;;;;;;18.89;54.85;98652.97;5047564;28;20152;-63
2021/07/02 08:34:27;;;;;;;3.28;2.97;;;;;;;18.71;54.35;98631.41;5048659;28;20025;-63
2021/07/02 08:36:52;;;;;;;2.47;2.38;;;;;;;18.65;54.67;98649.91;5048429;28;20029;-63
2021/07/02 08:39:18;;;;;;;3.63;3.33;;;;;;;18.57;55.45;98654.66;5033094;28;20087;-62
2021/07/02 08:41:44;;;;;;;2.90;2.70;;;;;;;18.48;55.20;98650.72;5048389;28;20090;-62
2021/07/02 08:44:10;;;;;;;2.50;2.30;;;;;;;18.18;55.60;98660.88;5050272;28;20218;-62
2021/07/02 08:46:37;;;;;;;3.75;3.13;;;;;;;18.09;56.43;98666.50;5051097;28;20191;-62
2021/07/02 08:49:04;;;;;;;3.15;2.95;;;;;;;18.18;56.93;98653.09;5050173;28;20380;-62
2021/07/02 08:51:29;;;;;;;3.50;3.20;;;;;;;17.91;57.23;98656.22;5034261;28;20029;-62
2021/07/02 08:53:55;;;;;;;2.92;2.72;;;;;;;17.95;56.98;98640.38;5049424;28;20039;-62
2021/07/02 08:56:22;;;;;;;3.13;2.92;;;;;;;17.98;57.60;98648.03;5049121;28;20036;-63
2021/07/02 08:58:47;;;;;;;4.03;3.20;;;;;;;18.12;57.65;98649.97;5050444;28;20041;-62
2021/07/02 09:01:42;;;;;;;3.80;2.85;;;;;;;18.15;57.18;98640.28;5049617;28;20373;-62
2021/07/02 09:04:34;;;;;;;3.10;2.90;;;;;;;18.31;56.53;98647.28;5052406;28;20040;-62
2021/07/02 09:07:12;;;;;;;3.15;2.95;;;;;;;18.22;56.55;98646.84;5050392;28;20041;-62
2021/07/02 09:09:49;;;;;;;3.75;3.45;;;;;;;18.17;56.75;98630.66;5052932;28;20052;-63
2021/07/02 09:12:18;;;;;;;5.53;3.10;;;;;;;18.39;56.27;98639.97;5052784;28;20136;-62
2021/07/02 09:14:58;;;;;;;4.18;3.00;;;;;;;18.51;55.63;98644.53;5054361;28;20033;-62
2021/07/02 09:17:24;;;;;;;4.13;3.83;;;;;;;18.33;55.47;98645.47;5054774;28;20036;-63
2021/07/02 09:20:02;;;;;;;2.97;2.60;;;;;;;18.35;55.35;98662.63;5054673;28;20385;-63
2021/07/02 09:22:28;;;;;;;3.13;2.88;;;;;;;18.32;55.87;98651.56;5052440;28;20650;-63
2021/07/02 09:24:54;;;;;;;3.75;3.45;;;;;;;18.43;54.67;98644.06;5052896;28;20086;-64
2021/07/02 09:27:29;;;;;;;5.22;3.80;;;;;;;18.44;55.08;98654.41;5052006;28;20144;-63
2021/07/02 09:30:12;;;;;;;4.30;3.47;;;;;;;18.71;54.34;98649.59;5053318;28;20172;-63
2021/07/02 09:32:45;;;;;;;3.50;3.20;;;;;;;18.91;53.79;98644.19;5054230;28;20025;-62
2021/07/02 09:35:12;;;;;;;3.33;3.08;;;;;;;18.65;54.49;98647.31;5053474;28;20025;-62
2021/07/02 09:37:49;;;;;;;3.42;3.10;;;;;;;18.73;54.44;98650.34;5052231;28;20278;-62
2021/07/02 09:40:30;;;;;;;3.58;3.28;;;;;;;18.87;53.61;98640.09;5050662;28;20033;-63
2021/07/02 09:43:14;;;;;;;3.35;3.05;;;;;;;19.20;53.49;98634.00;5051017;28;20025;-63
2021/07/02 09:46:07;;;;;;;3.88;3.47;;;;;;;19.11;53.24;98632.75;5053978;28;20036;-63
2021/07/02 09:48:42;;;;;;;5.03;4.20;;;;;;;19.36;52.13;98619.25;5050493;28;20171;-63
2021/07/02 09:51:09;;;;;;;3.92;3.53;;;;;;;19.37;51.80;98629.56;5054703;28;20039;-63
2021/07/02 09:53:36;;;;;;;4.03;3.58;;;;;;;19.07;52.90;98623.44;5053715;28;20032;-64
2021/07/02 09:56:04;;;;;;;4.07;3.47;;;;;;;18.67;53.08;98641.09;5053729;28;20053;-63
2021/07/02 09:58:36;;;;;;;3.85;3.10;;;;;;;18.63;53.80;98633.53;5054797;28;20032;-63
2021/07/02 10:01:02;;;;;;;4.05;3.42;;;;;;;18.58;54.23;98625.16;5054330;28;20272;-62
2021/07/02 10:03:30;;;;;;;4.07;3.67;;;;;;;18.61;54.69;98623.25;5053272;28;20320;-62
2021/07/02 10:06:01;;;;;;;3.35;3.05;;;;;;;18.65;53.71;98640.34;5053288;28;20409;-62
2021/07/02 10:08:31;;;;;;;4.35;3.50;;;;;;;18.44;54.23;98627.59;5052044;28;20021;-62
2021/07/02 10:10:58;;;;;;;3.60;3.28;;;;;;;18.61;53.58;98630.19;5051161;28;20028;-62
2021/07/02 10:13:29;;;;;;;5.10;3.65;;;;;;;18.51;53.48;98618.56;5053919;28;20029;-63
2021/07/02 10:15:56;;;;;;;3.85;3.55;;;;;;;18.74;53.16;98633.84;5053713;28;20233;-62
2021/07/02 10:18:24;;;;;;;3.58;3.13;;;;;;;18.75;52.16;98624.28;5053186;28;20099;-62
2021/07/02 10:20:50;;;;;;;4.05;3.67;;;;;;;18.84;51.77;98627.22;5053583;28;20040;-63
2021/07/02 10:23:28;;;;;;;4.57;3.50;;;;;;;19.13;51.06;98620.50;5053604;28;20367;-63
2021/07/02 10:25:55;;;;;;;3.58;3.28;;;;;;;19.11;51.71;98638.78;5050888;28;20803;-63
2021/07/02 10:28:22;;;;;;;3.97;3.67;;;;;;;19.00;51.63;98655.88;5051910;28;20036;-63
2021/07/02 10:30:48;;;;;;;4.22;3.33;;;;;;;19.00;51.91;98624.69;5052616;28;20033;-63
2021/07/02 10:33:15;;;;;;;4.13;3.83;;;;;;;19.09;51.21;98637.19;5052235;28;20325;-62
2021/07/02 10:35:44;;;;;;;3.78;3.47;;;;;;;19.22;50.91;98627.81;5036701;28;20104;-62
2021/07/02 10:38:10;;;;;;;3.38;3.03;;;;;;;19.39;50.17;98614.72;5052098;28;20380;-62
2021/07/02 10:40:43;;;;;;;3.75;3.45;;;;;;;19.52;50.75;98623.56;5050638;28;20028;-62
2021/07/02 10:43:12;;;;;;;3.90;3.60;;;;;;;19.91;49.16;98620.50;5052407;28;20037;-61
2021/07/02 10:45:39;;;;;;;3.53;3.22;;;;;;;19.97;49.42;98627.13;5053533;28;20028;-61
2021/07/02 10:48:05;;;;;;;3.35;3.05;;;;;;;19.82;49.02;98623.59;5052772;28;20036;-61
2021/07/02 10:50:38;;;;;;;4.70;3.63;;;;;;;19.61;50.16;98632.59;5050802;28;20152;-62
2021/07/02 10:53:25;;;;;;;3.90;3.50;;;;;;;19.78;48.90;98627.31;5052923;28;20099;-63
2021/07/02 10:55:51;;;;;;;5.07;3.78;;;;;;;19.45;49.21;98657.78;5051172;28;20115;-63
2021/07/02 10:58:16;;;;;;;3.72;3.42;;;;;;;19.66;48.31;98628.00;5051477;28;20063;-63
2021/07/02 11:01:07;;;;;;;3.45;3.05;;;;;;;19.63;48.14;98630.78;5052276;28;20456;-63
2021/07/02 11:03:32;;;;;;;3.70;3.40;;;;;;;19.60;48.08;98628.34;5051507;28;20078;-63
2021/07/02 11:05:57;;;;;;;4.45;4.10;;;;;;;19.71;48.55;98628.59;5052170;28;20040;-63
2021/07/02 11:08:45;;;;;;;4.68;3.67;;;;;;;19.61;48.15;98622.22;5050613;28;20033;-63
2021/07/02 11:11:11;;;;;;;6.25;3.70;;;;;;;19.47;49.17;98637.75;5051242;28;20037;-63
2021/07/02 11:14:10;;;;;;;3.33;3.03;;;;;;;19.72;48.77;98622.47;5053455;28;20078;-63
2021/07/02 11:17:14;;;;;;;6.03;3.85;;;;;;;19.47;48.35;98616.94;5052986;28;20123;-63
2021/07/02 11:19:39;;;;;;;6.72;3.53;;;;;;;19.45;48.84;98614.41;5050707;28;20036;-63
2021/07/02 11:22:25;;;;;;;5.57;4.05;;;;;;;19.67;49.00;98616.69;5051516;28;20084;-63
2021/07/02 11:25:04;;;;;;;3.90;3.47;;;;;;;19.90;48.74;98624.00;5049709;28;20033;-64
2021/07/02 11:27:43;;;;;;;6.22;3.42;;;;;;;19.87;46.95;98632.00;5051658;28;20043;-63
2021/07/02 11:30:21;;;;;;;4.45;3.60;;;;;;;20.01;46.37;98608.63;5052099;28;20036;-63
2021/07/02 11:32:50;;;;;;;4.15;3.85;;;;;;;19.92;46.86;98619.56;5050142;28;20074;-63
2021/07/02 11:35:22;;;;;;;4.03;3.28;;;;;;;19.96;45.74;98609.81;5051544;28;20148;-61